createdAt,value
2022-08-10T00:00:04.801Z,946.57
2022-08-10T00:05:03.176Z,946.53
2022-08-10T00:10:04.354Z,946.55
2022-08-10T00:15:03.270Z,946.55
2022-08-10T00:20:08.367Z,946.53
2022-08-10T00:25:03.263Z,946.55
2022-08-10T00:30:06.169Z,946.51
2022-08-10T00:35:03.193Z,946.45
2022-08-10T00:40:04.563Z,946.41
2022-08-10T00:45:03.162Z,946.37
2022-08-10T00:50:05.337Z,946.37
2022-08-10T00:55:03.281Z,946.31
2022-08-10T01:00:04.463Z,946.29
2022-08-10T01:05:03.395Z,946.27
2022-08-10T01:10:04.314Z,946.27
2022-08-10T01:15:03.104Z,946.27
2022-08-10T01:20:04.316Z,946.23
2022-08-10T01:25:03.298Z,946.22
2022-08-10T01:30:05.188Z,946.23
2022-08-10T01:35:03.308Z,946.20
2022-08-10T01:40:04.487Z,946.22
2022-08-10T01:45:03.263Z,946.22
2022-08-10T01:50:04.235Z,946.20
2022-08-10T01:55:03.168Z,946.16
2022-08-10T02:00:04.439Z,946.08
2022-08-10T02:05:03.180Z,946.16
2022-08-10T02:10:04.232Z,946.16
2022-08-10T02:15:03.138Z,946.04
2022-08-10T02:20:04.282Z,946.04
2022-08-10T02:25:03.215Z,946.06
2022-08-10T02:30:04.898Z,946.06
2022-08-10T02:35:03.185Z,946.04
2022-08-10T02:40:04.223Z,946.00
2022-08-10T02:45:16.758Z,945.98
2022-08-10T02:50:05.333Z,946.00
2022-08-10T02:55:04.738Z,945.92
2022-08-10T03:00:04.993Z,945.90
2022-08-10T03:05:03.429Z,945.90
2022-08-10T03:10:04.473Z,945.90
2022-08-10T03:15:03.162Z,945.86
2022-08-10T03:20:36.143Z,945.82
2022-08-10T03:25:03.256Z,945.74
2022-08-10T03:30:23.664Z,945.72
2022-08-10T03:35:03.213Z,945.70
2022-08-10T03:40:04.300Z,945.65
2022-08-10T03:45:03.334Z,945.63
2022-08-10T03:50:24.643Z,945.63
2022-08-10T03:55:03.266Z,945.61
2022-08-10T04:00:10.409Z,945.57
2022-08-10T04:05:03.189Z,945.47
2022-08-10T04:10:06.723Z,945.45
2022-08-10T04:15:03.232Z,945.43
2022-08-10T04:20:04.233Z,945.47
2022-08-10T04:25:03.197Z,945.37
2022-08-10T04:30:04.792Z,945.35
2022-08-10T04:35:03.202Z,945.35
2022-08-10T04:40:04.355Z,945.29
2022-08-10T04:45:03.218Z,945.27
2022-08-10T04:50:04.318Z,945.25
2022-08-10T04:55:03.345Z,945.22
2022-08-10T05:00:07.542Z,945.25
2022-08-10T05:05:03.123Z,945.20
2022-08-10T05:10:06.676Z,945.10
2022-08-10T05:15:03.143Z,945.02
2022-08-10T05:20:06.613Z,945.00
2022-08-10T05:25:03.163Z,944.96
2022-08-10T05:30:06.238Z,944.92
2022-08-10T05:35:03.118Z,944.88
2022-08-10T05:40:04.357Z,944.80
2022-08-10T05:45:03.268Z,944.80
2022-08-10T05:50:04.243Z,944.72
2022-08-10T05:55:03.261Z,944.67
2022-08-10T06:00:09.444Z,944.59
2022-08-10T06:05:03.216Z,944.53
2022-08-10T06:10:04.399Z,944.49
2022-08-10T06:15:05.514Z,944.43
2022-08-10T06:20:06.990Z,944.35
2022-08-10T06:30:04.775Z,944.25
2022-08-10T06:35:03.364Z,944.17
2022-08-10T06:40:04.265Z,944.12
2022-08-10T06:45:03.136Z,944.00
2022-08-10T06:50:04.870Z,943.96
2022-08-10T06:55:05.095Z,943.92
2022-08-10T07:00:04.663Z,943.92
2022-08-10T07:05:03.267Z,943.88
2022-08-10T07:10:04.199Z,943.82
2022-08-10T07:15:03.283Z,943.76
2022-08-10T07:20:04.518Z,943.78
2022-08-10T07:25:06.848Z,943.74
2022-08-10T07:30:04.955Z,943.66
2022-08-10T07:35:03.327Z,943.59
2022-08-10T07:40:05.015Z,943.49
2022-08-10T07:45:03.119Z,943.49
2022-08-10T07:50:04.094Z,943.47
2022-08-10T07:55:03.310Z,943.45
2022-08-10T08:00:04.866Z,943.41
2022-08-10T08:05:03.334Z,943.39
2022-08-10T08:10:04.190Z,943.31
2022-08-10T08:15:13.852Z,943.23
2022-08-10T08:20:04.227Z,943.20
2022-08-10T08:25:03.252Z,943.21
2022-08-10T08:30:04.905Z,943.20
2022-08-10T08:35:03.263Z,943.23
2022-08-10T08:40:04.181Z,943.21
2022-08-10T08:45:03.202Z,943.21
2022-08-10T08:50:05.422Z,943.29
2022-08-10T08:55:03.301Z,943.35
2022-08-10T09:00:04.849Z,943.47
2022-08-10T09:05:03.268Z,943.61
2022-08-10T09:10:04.183Z,943.65
2022-08-10T09:15:03.305Z,943.68
2022-08-10T09:20:04.240Z,943.68
2022-08-10T09:25:04.824Z,943.68
2022-08-10T09:30:04.666Z,943.74
2022-08-10T09:36:18.704Z,943.76
2022-08-10T09:40:06.065Z,943.80
2022-08-10T09:45:03.118Z,943.78
2022-08-10T09:50:05.017Z,943.74
2022-08-10T09:55:03.141Z,943.84
2022-08-10T10:00:05.926Z,943.84
2022-08-10T10:05:03.357Z,943.84
2022-08-10T10:10:04.372Z,943.90
2022-08-10T10:15:03.125Z,943.92
2022-08-10T10:20:04.250Z,943.92
2022-08-10T10:25:20.054Z,943.94
2022-08-10T10:30:04.668Z,944.00
2022-08-10T10:35:03.245Z,944.04
2022-08-10T10:40:04.162Z,944.02
2022-08-10T10:45:03.451Z,944.10
2022-08-10T10:50:04.247Z,944.15
2022-08-10T10:55:03.206Z,944.21
2022-08-10T11:00:04.639Z,944.31
2022-08-10T11:05:03.241Z,944.35
2022-08-10T11:10:09.376Z,944.47
2022-08-10T11:15:03.296Z,944.53
2022-08-10T11:20:04.501Z,944.53
2022-08-10T11:25:03.374Z,944.53
2022-08-10T11:30:04.847Z,944.63
2022-08-10T11:35:10.113Z,944.59
2022-08-10T11:40:04.166Z,944.53
2022-08-10T11:45:03.055Z,944.53
2022-08-10T11:50:04.215Z,944.55
2022-08-10T11:55:03.204Z,944.55
2022-08-10T12:00:04.736Z,944.59
2022-08-10T12:05:03.326Z,944.68
2022-08-10T12:10:13.339Z,944.82
2022-08-10T12:15:03.281Z,945.00
2022-08-10T12:20:04.235Z,945.16
2022-08-10T12:25:03.104Z,945.23
2022-08-10T12:30:05.506Z,945.25
2022-08-10T12:35:03.235Z,945.37
2022-08-10T12:40:31.695Z,945.51
2022-08-10T12:45:03.326Z,945.55
2022-08-10T12:50:13.979Z,945.65
2022-08-10T12:55:03.148Z,945.74
2022-08-10T13:00:04.659Z,945.86
2022-08-10T13:05:03.347Z,946.02
2022-08-10T13:10:04.502Z,946.02
2022-08-10T13:15:03.265Z,946.06
2022-08-10T13:20:12.580Z,946.18
2022-08-10T13:25:06.211Z,946.22
2022-08-10T13:30:05.220Z,946.22
2022-08-10T13:35:03.257Z,946.23
2022-08-10T13:40:09.357Z,946.23
2022-08-10T13:45:03.274Z,946.27
2022-08-10T13:50:04.203Z,946.22
2022-08-10T13:55:03.140Z,946.22
2022-08-10T14:00:33.172Z,946.23
2022-08-10T14:05:03.221Z,946.18
2022-08-10T14:10:04.247Z,946.33
2022-08-10T14:15:03.234Z,946.43
2022-08-10T14:20:04.139Z,946.49
2022-08-10T14:25:03.247Z,946.55
2022-08-10T14:30:06.717Z,946.59
2022-08-10T14:36:17.238Z,946.57
2022-08-10T14:40:04.074Z,946.55
2022-08-10T14:45:03.338Z,946.63
2022-08-10T14:50:05.049Z,946.71
2022-08-10T14:55:04.258Z,946.67
2022-08-10T15:00:20.825Z,946.65
2022-08-10T15:05:03.419Z,946.63
2022-08-10T15:10:04.716Z,946.67
2022-08-10T15:15:03.256Z,946.65
2022-08-10T15:20:14.002Z,946.71
2022-08-10T15:25:03.327Z,946.78
2022-08-10T15:30:04.764Z,946.80
2022-08-10T15:35:03.123Z,946.71
2022-08-10T15:40:22.905Z,946.65
2022-08-10T15:45:03.389Z,946.73
2022-08-10T15:50:04.127Z,946.71
2022-08-10T15:55:03.251Z,946.63
2022-08-10T16:00:06.022Z,946.61
2022-08-10T16:05:03.151Z,946.57
2022-08-10T16:10:11.707Z,946.63
2022-08-10T16:15:03.302Z,946.59
2022-08-10T16:20:09.130Z,946.57
2022-08-10T16:25:03.066Z,946.51
2022-08-10T16:40:04.401Z,946.45
2022-08-10T16:45:03.241Z,946.43
2022-08-10T16:50:04.356Z,946.51
2022-08-10T16:55:08.138Z,946.51
2022-08-10T17:00:05.440Z,946.49
2022-08-10T17:05:03.135Z,946.45
2022-08-10T17:10:06.525Z,946.41
2022-08-10T17:15:09.913Z,946.45
2022-08-10T17:20:29.848Z,946.33
2022-08-10T17:25:03.283Z,946.29
2022-08-10T17:30:07.098Z,946.35
2022-08-10T17:35:03.123Z,946.35
2022-08-10T17:40:04.071Z,946.31
2022-08-10T17:45:03.184Z,946.31
2022-08-10T17:50:04.195Z,946.29
2022-08-10T17:55:03.359Z,946.33
2022-08-10T18:00:09.758Z,946.29
2022-08-10T18:05:03.398Z,946.22
2022-08-10T18:10:04.238Z,946.06
2022-08-10T18:15:03.150Z,946.06
2022-08-10T18:20:04.276Z,946.06
2022-08-10T18:25:03.227Z,946.16
2022-08-10T18:30:06.639Z,946.22
2022-08-10T18:35:03.136Z,946.23
2022-08-10T18:40:04.284Z,946.25
2022-08-10T18:45:03.356Z,946.37
2022-08-10T18:50:04.154Z,946.27
2022-08-10T18:55:03.297Z,946.29
2022-08-10T19:00:08.561Z,946.37
2022-08-10T19:05:03.130Z,946.33
2022-08-10T19:10:04.236Z,946.39
2022-08-10T19:15:04.621Z,946.37
2022-08-10T19:20:04.079Z,946.35
2022-08-10T19:25:03.284Z,946.41
2022-08-10T19:30:10.492Z,946.39
2022-08-10T19:35:03.169Z,946.39
2022-08-10T19:40:04.331Z,946.43
2022-08-10T19:45:04.253Z,946.51
2022-08-10T19:50:04.281Z,946.63
2022-08-10T19:55:03.256Z,946.69
2022-08-10T20:00:17.899Z,946.73
2022-08-10T20:05:03.095Z,946.78
2022-08-10T20:10:04.416Z,946.84
2022-08-10T20:15:03.148Z,946.88
2022-08-10T20:20:05.293Z,946.92
2022-08-10T20:25:03.473Z,947.00
2022-08-10T20:30:04.942Z,947.06
2022-08-10T20:35:03.020Z,947.12
2022-08-10T20:40:04.246Z,947.18
2022-08-10T20:45:03.196Z,947.24
2022-08-10T20:50:04.273Z,947.28
2022-08-10T20:55:03.289Z,947.31
2022-08-10T21:00:06.413Z,947.31
2022-08-10T21:05:03.304Z,947.39
2022-08-10T21:10:04.199Z,947.45
2022-08-10T21:15:03.412Z,947.43
2022-08-10T21:20:04.263Z,947.43
2022-08-10T21:25:03.249Z,947.37
2022-08-10T21:30:08.453Z,947.33
2022-08-10T21:35:03.125Z,947.26
2022-08-10T21:40:04.297Z,947.22
2022-08-10T21:45:04.383Z,947.20
2022-08-10T21:50:07.098Z,947.24
2022-08-10T21:55:03.241Z,947.28
2022-08-10T22:00:04.774Z,947.29
2022-08-10T22:05:03.374Z,947.37
2022-08-10T22:10:04.302Z,947.47
2022-08-10T22:15:03.180Z,947.51
2022-08-10T22:20:04.294Z,947.55
2022-08-10T22:25:03.213Z,947.57
2022-08-10T22:30:04.581Z,947.73
2022-08-10T22:35:03.198Z,947.79
2022-08-10T22:40:06.027Z,947.82
2022-08-10T22:45:03.172Z,947.84
2022-08-10T22:50:07.737Z,947.88
2022-08-10T22:55:03.254Z,947.94
2022-08-10T23:00:04.636Z,948.02
2022-08-10T23:05:03.333Z,948.14
2022-08-10T23:10:04.367Z,948.26
2022-08-10T23:15:03.358Z,948.30
2022-08-10T23:20:04.268Z,948.28
2022-08-10T23:25:03.228Z,948.37
2022-08-10T23:30:17.300Z,948.55
2022-08-10T23:36:05.373Z,948.53
2022-08-10T23:40:04.558Z,948.55
2022-08-10T23:45:03.135Z,948.55
2022-08-10T23:50:04.242Z,948.55
2022-08-10T23:55:03.313Z,948.63
